Weather at Edgar County Airport

Public forecast

Using degrees Fahrenheit for public forecast. Weather courtesy of forecast.io.

Current aviation weather report (METAR) for Edgar County Airport

Retrieved 2020/10/26 00:35 UTC (0 seconds ago):

KPRG 260035Z 7SM -DZ OVC019 09/07 A3010 RMK AO2 T00850066

Closest aviation forecast (TAF) to Edgar County Airport

Closest forecast is Terre Haute Regional Airport, Hulman Field, 22.4 nm (41.6 km) SE. Retrieved 2020-10-26 00:24 UTC (1 second ago):

TAF KHUF 252323Z 2600/2624 03006KT P6SM VCSH BKN030 OVC040 FM260300 03005KT P6SM VCSH OVC018 FM260400 03005KT P6SM OVC019 FM262100 36007KT 6SM -SHRA OVC013 FM262300 01007KT 6SM -SHRA OVC009